Time;durP1;ratioP1;P1;durP2;ratioP2;P2;SDS_P1;SDS_P2;PMS_P1;PMS_P2;Temp;Humidity;BMP_temperature;BMP_pressure;BME280_temperature;BME280_humidity;BME280_pressure;Samples;Min_cycle;Max_cycle;Signal;HPM_P1;HPM_P2
2022/10/07 00:01:57;;;;;;;4.75;2.90;;;;;;;;;;4919335;29;20582;-84
2022/10/07 00:04:22;;;;;;;4.68;2.80;;;;;;;;;;4919284;29;20413;-84
2022/10/07 00:06:48;;;;;;;5.63;2.60;;;;;;;;;;4920626;29;20040;-85
2022/10/07 00:09:14;;;;;;;4.40;2.50;;;;;;;;;;4920659;29;20036;-84
2022/10/07 00:11:40;;;;;;;5.20;3.10;;;;;;;;;;4918549;29;20618;-85
2022/10/07 00:14:06;;;;;;;5.00;2.75;;;;;;;;;;4920305;29;20036;-84
2022/10/07 00:16:37;;;;;;;4.35;3.08;;;;;;;;;;4934986;29;20449;-85
2022/10/07 00:19:06;;;;;;;4.82;2.83;;;;;;;;;;4919168;29;20036;-84
2022/10/07 00:21:33;;;;;;;3.88;2.90;;;;;;;;;;4920400;29;20051;-85
2022/10/07 00:23:59;;;;;;;3.20;2.70;;;;;;;;;;4935051;29;20490;-84
2022/10/07 00:26:27;;;;;;;4.57;2.95;;;;;;;;;;4919006;29;20044;-84
2022/10/07 00:28:53;;;;;;;4.13;3.05;;;;;;;;;;4918887;29;20036;-84
2022/10/07 00:31:21;;;;;;;7.50;3.20;;;;;;;;;;4920060;29;20527;-85
2022/10/07 00:33:47;;;;;;;4.85;3.08;;;;;;;;;;4918677;29;20036;-85
2022/10/07 00:36:17;;;;;;;3.65;3.00;;;;;;;;;;4918578;29;20032;-83
2022/10/07 00:38:43;;;;;;;5.00;3.70;;;;;;;;;;4919911;29;20043;-83
2022/10/07 00:41:16;;;;;;;5.20;3.70;;;;;;;;;;4918408;29;20040;-85
2022/10/07 00:43:42;;;;;;;;;;;;;;;;;;4918575;29;20039;-84
2022/10/07 00:46:29;;;;;;;5.15;3.47;;;;;;;;;;4919537;29;19915;-84
2022/10/07 00:48:57;;;;;;;4.45;3.33;;;;;;;;;;4918183;29;20042;-83
2022/10/07 00:51:24;;;;;;;4.32;3.17;;;;;;;;;;4918177;29;20072;-84
2022/10/07 00:53:52;;;;;;;5.70;3.00;;;;;;;;;;4919643;29;20062;-84
2022/10/07 00:56:18;;;;;;;3.75;3.17;;;;;;;;;;4917955;29;20100;-84
2022/10/07 00:58:46;;;;;;;3.33;2.92;;;;;;;;;;4933894;29;20122;-84
2022/10/07 01:01:12;;;;;;;5.80;3.38;;;;;;;;;;4917970;29;20032;-84
2022/10/07 01:03:41;;;;;;;3.72;2.90;;;;;;;;;;4917869;29;20036;-86
2022/10/07 01:06:06;;;;;;;3.58;2.88;;;;;;;;;;4917709;29;20043;-84
2022/10/07 01:08:32;;;;;;;7.72;2.80;;;;;;;;;;4919236;29;20040;-85
2022/10/07 01:11:16;;;;;;;4.15;3.03;;;;;;;;;;4917091;29;20083;-85
2022/10/07 01:14:06;;;;;;;5.70;3.00;;;;;;;;;;4917116;29;20036;-84
2022/10/07 01:17:03;;;;;;;5.60;3.03;;;;;;;;;;4917848;29;20119;-84
2022/10/07 01:19:51;;;;;;;5.88;2.97;;;;;;;;;;4917824;29;20088;-84
2022/10/07 01:22:33;;;;;;;5.25;2.90;;;;;;;;;;4900533;29;20497;-83
2022/10/07 01:25:18;;;;;;;5.63;2.90;;;;;;;;;;4919095;29;20033;-84
2022/10/07 01:27:47;;;;;;;;;;;;;;;;;;4918022;29;20489;-83
2022/10/07 01:30:15;;;;;;;5.03;2.95;;;;;;;;;;4933330;29;19957;-83
2022/10/07 01:32:52;;;;;;;4.53;3.10;;;;;;;;;;4917389;29;20039;-84
2022/10/07 01:35:24;;;;;;;4.93;3.22;;;;;;;;;;4917356;29;20036;-84
2022/10/07 01:37:54;;;;;;;3.88;2.80;;;;;;;;;;4917590;29;20512;-84
2022/10/07 01:40:29;;;;;;;5.45;2.80;;;;;;;;;;4917804;29;20405;-83
2022/10/07 01:42:56;;;;;;;5.72;2.78;;;;;;;;;;4917322;29;20031;-84
2022/10/07 01:45:26;;;;;;;3.75;2.90;;;;;;;;;;4919603;29;20036;-84
2022/10/07 01:47:51;;;;;;;4.57;2.60;;;;;;;;;;4917295;29;20059;-86
2022/10/07 01:50:21;;;;;;;3.55;2.42;;;;;;;;;;4916873;29;20051;-86
2022/10/07 01:53:11;;;;;;;4.43;2.45;;;;;;;;;;4918046;29;20036;-83
2022/10/07 01:55:46;;;;;;;4.43;2.63;;;;;;;;;;4901182;29;20112;-84
2022/10/07 01:58:30;;;;;;;3.28;2.60;;;;;;;;;;4917076;29;20413;-84
2022/10/07 02:01:18;;;;;;;3.13;2.67;;;;;;;;;;4916950;29;20036;-84
2022/10/07 02:04:14;;;;;;;4.25;2.70;;;;;;;;;;4916957;29;20040;-83
2022/10/07 02:06:57;;;;;;;8.68;3.13;;;;;;;;;;4916944;29;20031;-83
2022/10/07 02:09:30;;;;;;;8.48;2.53;;;;;;;;;;4918210;29;20039;-83
2022/10/07 02:12:35;;;;;;;5.90;2.72;;;;;;;;;;4917391;29;20043;-83
2022/10/07 02:15:05;;;;;;;;;;;;;;;;;;4878647;29;20084;-84
2022/10/07 02:17:36;;;;;;;6.50;2.90;;;;;;;;;;4880507;29;20324;-84
2022/10/07 02:20:07;;;;;;;3.65;2.60;;;;;;;;;;4905783;29;20063;-83
2022/10/07 02:22:34;;;;;;;3.83;2.70;;;;;;;;;;4915868;29;20032;-83
2022/10/07 02:25:00;;;;;;;4.75;2.70;;;;;;;;;;4916433;29;20401;-83
2022/10/07 02:27:37;;;;;;;3.72;2.47;;;;;;;;;;4932333;29;20072;-85
2022/10/07 02:30:10;;;;;;;4.50;2.97;;;;;;;;;;4916623;29;20083;-83
2022/10/07 02:32:40;;;;;;;6.25;3.17;;;;;;;;;;4919485;29;20060;-83
2022/10/07 02:35:13;;;;;;;5.43;2.90;;;;;;;;;;4918315;29;20062;-83
2022/10/07 02:37:42;;;;;;;8.32;3.00;;;;;;;;;;4931917;29;20032;-84
2022/10/07 02:40:08;;;;;;;4.40;2.90;;;;;;;;;;4916172;29;20027;-85
2022/10/07 02:42:41;;;;;;;4.50;2.63;;;;;;;;;;4917263;29;20096;-84
2022/10/07 02:45:14;;;;;;;4.82;2.80;;;;;;;;;;4916308;29;20637;-83
2022/10/07 02:47:48;;;;;;;5.78;2.80;;;;;;;;;;4916532;29;20063;-85
2022/10/07 02:50:19;;;;;;;3.88;2.70;;;;;;;;;;4916413;29;20130;-85
2022/10/07 02:52:46;;;;;;;5.15;2.50;;;;;;;;;;4916095;29;20032;-83
2022/10/07 02:55:18;;;;;;;10.65;3.40;;;;;;;;;;4915624;29;20048;-84
2022/10/07 02:57:46;;;;;;;6.47;3.42;;;;;;;;;;4916149;29;20423;-82
2022/10/07 03:00:14;;;;;;;14.13;4.85;;;;;;;;;;4916481;29;20063;-84
2022/10/07 03:02:53;;;;;;;48.17;5.72;;;;;;;;;;4919079;29;20059;-83
2022/10/07 03:05:23;;;;;;;23.63;8.27;;;;;;;;;;4915755;29;20059;-83
2022/10/07 03:07:55;;;;;;;23.75;5.97;;;;;;;;;;4931527;29;20420;-85
2022/10/07 03:10:21;;;;;;;28.60;6.82;;;;;;;;;;4931557;29;20417;-83
2022/10/07 03:12:46;;;;;;;17.60;6.55;;;;;;;;;;4916486;29;20031;-84
2022/10/07 03:15:12;;;;;;;22.33;5.78;;;;;;;;;;4899873;29;20494;-84
2022/10/07 03:17:39;;;;;;;39.83;5.90;;;;;;;;;;4916903;29;20047;-84
2022/10/07 03:20:07;;;;;;;31.15;5.32;;;;;;;;;;4899928;29;20072;-84
2022/10/07 03:22:33;;;;;;;39.20;5.80;;;;;;;;;;4915549;29;20160;-83
2022/10/07 03:24:58;;;;;;;19.23;5.65;;;;;;;;;;4917066;29;20470;-83
2022/10/07 03:27:24;;;;;;;24.17;6.22;;;;;;;;;;4915922;29;20131;-84
2022/10/07 03:29:50;;;;;;;33.83;5.93;;;;;;;;;;4915548;29;20035;-85
2022/10/07 03:32:16;;;;;;;40.92;5.90;;;;;;;;;;4915268;29;20040;-83
2022/10/07 03:34:41;;;;;;;20.52;5.50;;;;;;;;;;4931027;29;20071;-83
2022/10/07 03:37:07;;;;;;;27.52;5.93;;;;;;;;;;4915341;29;20075;-83
2022/10/07 03:39:32;;;;;;;15.45;5.80;;;;;;;;;;4915278;29;20040;-83
2022/10/07 03:41:59;;;;;;;18.38;5.90;;;;;;;;;;4917478;29;20147;-82
2022/10/07 03:44:24;;;;;;;21.23;5.82;;;;;;;;;;4930143;29;20119;-82
2022/10/07 03:46:51;;;;;;;28.95;6.20;;;;;;;;;;4914550;29;20028;-83
2022/10/07 03:49:19;;;;;;;39.55;6.57;;;;;;;;;;4914495;29;20042;-82
2022/10/07 03:51:45;;;;;;;20.73;6.07;;;;;;;;;;4914534;29;20127;-82
2022/10/07 03:54:10;;;;;;;26.60;5.80;;;;;;;;;;4914436;29;20099;-82
2022/10/07 03:56:37;;;;;;;19.30;5.95;;;;;;;;;;4914529;29;20465;-83
2022/10/07 03:59:03;;;;;;;38.00;6.10;;;;;;;;;;4914523;29;20139;-82
2022/10/07 04:01:30;;;;;;;17.45;5.18;;;;;;;;;;4914312;29;20375;-82
2022/10/07 04:04:00;;;;;;;16.17;5.05;;;;;;;;;;4899238;29;20036;-81
2022/10/07 04:06:30;;;;;;;16.27;5.15;;;;;;;;;;4899006;29;20130;-82
2022/10/07 04:08:56;;;;;;;15.48;5.57;;;;;;;;;;4899802;29;20040;-82
2022/10/07 04:11:23;;;;;;;12.35;5.43;;;;;;;;;;4930776;29;20159;-80
2022/10/07 04:13:51;;;;;;;10.38;5.47;;;;;;;;;;4914337;29;20534;-82
2022/10/07 04:16:18;;;;;;;9.98;5.45;;;;;;;;;;4914239;29;20040;-82
2022/10/07 04:18:45;;;;;;;12.55;5.32;;;;;;;;;;4914361;29;20031;-82
2022/10/07 04:21:11;;;;;;;16.70;6.38;;;;;;;;;;4930215;29;20066;-82
2022/10/07 04:23:39;;;;;;;16.13;5.75;;;;;;;;;;4915007;29;20040;-83
2022/10/07 04:26:10;;;;;;;13.20;6.00;;;;;;;;;;4898432;29;20043;-82
2022/10/07 04:28:37;;;;;;;10.18;6.10;;;;;;;;;;4915461;29;20036;-82
2022/10/07 04:31:11;;;;;;;15.88;5.85;;;;;;;;;;4930237;29;20046;-82
2022/10/07 04:33:43;;;;;;;10.65;5.50;;;;;;;;;;4914696;29;20064;-83
2022/10/07 04:36:12;;;;;;;10.95;5.70;;;;;;;;;;4914145;29;20039;-82
2022/10/07 04:38:50;;;;;;;9.93;5.25;;;;;;;;;;4914376;29;20032;-82
2022/10/07 04:41:17;;;;;;;16.58;8.55;;;;;;;;;;4899149;29;20084;-82
2022/10/07 04:43:42;;;;;;;9.63;4.60;;;;;;;;;;4914337;29;20052;-82
2022/10/07 04:46:13;;;;;;;7.68;5.07;;;;;;;;;;4916853;29;20036;-83
2022/10/07 04:48:44;;;;;;;8.20;4.72;;;;;;;;;;4934218;29;20059;-83
2022/10/07 04:51:11;;;;;;;12.63;5.13;;;;;;;;;;4900226;29;20576;-83
2022/10/07 04:53:39;;;;;;;11.50;5.35;;;;;;;;;;4898504;29;20399;-82
2022/10/07 04:56:07;;;;;;;11.40;5.45;;;;;;;;;;4899463;29;20063;-82
2022/10/07 04:58:33;;;;;;;9.52;5.00;;;;;;;;;;4898673;29;20036;-82
2022/10/07 05:01:06;;;;;;;18.08;5.63;;;;;;;;;;4898501;29;20092;-82
2022/10/07 05:03:37;;;;;;;9.73;5.10;;;;;;;;;;4899504;29;20032;-82
2022/10/07 05:06:04;;;;;;;19.40;5.63;;;;;;;;;;4899118;29;20032;-82
2022/10/07 05:08:30;;;;;;;9.70;5.20;;;;;;;;;;4898325;29;20107;-82
2022/10/07 05:10:58;;;;;;;11.02;5.47;;;;;;;;;;4898166;29;20410;-82
2022/10/07 05:13:25;;;;;;;15.25;6.53;;;;;;;;;;4898014;29;20040;-82
2022/10/07 05:16:00;;;;;;;15.38;6.78;;;;;;;;;;4882469;29;20048;-82
2022/10/07 05:18:28;;;;;;;21.50;6.25;;;;;;;;;;4898206;29;20156;-82
2022/10/07 05:20:55;;;;;;;20.58;6.97;;;;;;;;;;4898064;29;20040;-82
2022/10/07 05:23:25;;;;;;;12.85;6.88;;;;;;;;;;4897938;29;20566;-82
2022/10/07 05:26:00;;;;;;;15.63;6.32;;;;;;;;;;4899157;29;20043;-83
2022/10/07 05:28:27;;;;;;;10.35;6.30;;;;;;;;;;4898715;29;20056;-83
2022/10/07 05:31:04;;;;;;;17.52;6.78;;;;;;;;;;4898585;29;20518;-83
2022/10/07 05:33:30;;;;;;;19.20;6.38;;;;;;;;;;4898940;29;20089;-83
2022/10/07 05:35:57;;;;;;;14.65;6.20;;;;;;;;;;4898999;29;20036;-83
2022/10/07 05:38:23;;;;;;;15.48;6.20;;;;;;;;;;4898971;29;20056;-83
2022/10/07 05:40:59;;;;;;;24.20;6.05;;;;;;;;;;4899405;29;20068;-83
2022/10/07 05:43:28;;;;;;;17.17;6.63;;;;;;;;;;4898981;29;20033;-83
2022/10/07 05:46:00;;;;;;;14.57;6.70;;;;;;;;;;4898954;29;20039;-83
2022/10/07 05:48:27;;;;;;;10.20;6.75;;;;;;;;;;4899118;29;20040;-84
2022/10/07 05:50:54;;;;;;;12.88;6.88;;;;;;;;;;4899358;29;20047;-83
2022/10/07 05:53:19;;;;;;;9.43;6.60;;;;;;;;;;4898921;29;20033;-83
2022/10/07 05:55:45;;;;;;;17.27;8.77;;;;;;;;;;4913818;29;20040;-82
2022/10/07 05:58:12;;;;;;;16.88;7.10;;;;;;;;;;4913653;29;20401;-82
2022/10/07 06:00:41;;;;;;;18.02;7.05;;;;;;;;;;4897668;29;20040;-82
2022/10/07 06:03:07;;;;;;;12.68;8.48;;;;;;;;;;4897462;29;20037;-81
2022/10/07 06:05:33;;;;;;;12.63;7.45;;;;;;;;;;4913671;29;20029;-82
2022/10/07 06:07:58;;;;;;;8.85;6.82;;;;;;;;;;4913147;29;20382;-83
2022/10/07 06:13:09;;;;;;;13.85;6.78;;;;;;;;;;4898272;29;20107;-81
2022/10/07 06:15:36;;;;;;;14.18;7.03;;;;;;;;;;4897965;29;20041;-81
2022/10/07 06:18:03;;;;;;;13.13;7.32;;;;;;;;;;4897605;29;20409;-81
2022/10/07 06:20:29;;;;;;;21.50;8.20;;;;;;;;;;4881684;29;20041;-82
2022/10/07 06:22:57;;;;;;;14.70;8.07;;;;;;;;;;4896917;29;20063;-83
2022/10/07 06:25:24;;;;;;;28.10;8.20;;;;;;;;;;4897269;29;20493;-83
2022/10/07 06:27:50;;;;;;;20.45;8.18;;;;;;;;;;4897204;29;20089;-82
2022/10/07 06:30:16;;;;;;;18.02;7.70;;;;;;;;;;4896972;29;20497;-83
2022/10/07 06:32:42;;;;;;;24.80;8.27;;;;;;;;;;4897472;29;20032;-81
2022/10/07 06:35:08;;;;;;;14.27;7.38;;;;;;;;;;4913652;29;20092;-82
2022/10/07 06:37:33;;;;;;;9.55;6.68;;;;;;;;;;4898242;29;20036;-81
2022/10/07 06:39:59;;;;;;;9.85;6.60;;;;;;;;;;4897162;29;20112;-82
2022/10/07 06:42:28;;;;;;;11.30;6.93;;;;;;;;;;4896975;29;20036;-83
2022/10/07 06:45:12;;;;;;;16.98;7.43;;;;;;;;;;4898478;29;20096;-81
2022/10/07 06:47:38;;;;;;;13.55;7.43;;;;;;;;;;4913128;29;20037;-81
2022/10/07 06:50:04;;;;;;;16.65;7.00;;;;;;;;;;4897243;29;20048;-82
2022/10/07 06:52:30;;;;;;;10.73;6.82;;;;;;;;;;4881806;29;20039;-82
2022/10/07 06:54:57;;;;;;;10.40;7.18;;;;;;;;;;4882235;29;20124;-83
2022/10/07 06:57:23;;;;;;;12.23;6.80;;;;;;;;;;4898260;29;20075;-83
2022/10/07 06:59:49;;;;;;;10.75;6.18;;;;;;;;;;4898104;29;20493;-82
2022/10/07 07:02:16;;;;;;;11.50;7.53;;;;;;;;;;4897935;29;20145;-82
2022/10/07 07:04:41;;;;;;;11.27;6.90;;;;;;;;;;4897725;29;20511;-83
2022/10/07 07:07:07;;;;;;;12.15;7.25;;;;;;;;;;4897113;29;20231;-82
2022/10/07 07:09:32;;;;;;;10.60;7.05;;;;;;;;;;4896815;29;20092;-82
2022/10/07 07:11:59;;;;;;;13.02;7.90;;;;;;;;;;4896371;29;20494;-82
2022/10/07 07:14:33;;;;;;;12.93;7.60;;;;;;;;;;4896689;29;20498;-82
2022/10/07 07:17:03;;;;;;;21.90;7.63;;;;;;;;;;4897290;29;20057;-83
2022/10/07 07:19:28;;;;;;;15.38;7.18;;;;;;;;;;4897095;29;20036;-82
2022/10/07 07:21:55;;;;;;;13.07;7.15;;;;;;;;;;4897186;29;20387;-83
2022/10/07 07:24:22;;;;;;;12.15;7.82;;;;;;;;;;4896795;29;20393;-82
2022/10/07 07:26:48;;;;;;;11.07;7.75;;;;;;;;;;4896567;29;20041;-83
2022/10/07 07:29:15;;;;;;;13.98;8.43;;;;;;;;;;4896983;29;20032;-83
2022/10/07 07:31:48;;;;;;;10.30;7.28;;;;;;;;;;4896927;29;20036;-82
2022/10/07 07:34:14;;;;;;;11.38;7.90;;;;;;;;;;4897109;29;20032;-86
2022/10/07 07:36:50;;;;;;;19.20;8.55;;;;;;;;;;4899049;29;20516;-87
2022/10/07 07:39:18;;;;;;;13.48;8.85;;;;;;;;;;4900041;29;20040;-86
2022/10/07 07:41:49;;;;;;;22.58;8.85;;;;;;;;;;4899257;29;20092;-86
2022/10/07 07:44:18;;;;;;;21.95;9.38;;;;;;;;;;4897739;29;20452;-86
2022/10/07 07:46:50;;;;;;;13.15;8.48;;;;;;;;;;4898838;29;20051;-86
2022/10/07 07:49:18;;;;;;;16.02;9.13;;;;;;;;;;4898658;29;20043;-87
2022/10/07 07:51:45;;;;;;;12.50;8.90;;;;;;;;;;4914664;29;20092;-86
2022/10/07 07:54:16;;;;;;;12.15;9.15;;;;;;;;;;4898665;29;20454;-86
2022/10/07 07:56:44;;;;;;;12.73;8.65;;;;;;;;;;4898819;29;20056;-87
2022/10/07 07:59:11;;;;;;;14.45;8.98;;;;;;;;;;4899123;29;20423;-87
2022/10/07 08:01:37;;;;;;;15.38;9.38;;;;;;;;;;4899114;29;20032;-87
2022/10/07 08:04:04;;;;;;;19.25;10.00;;;;;;;;;;4898384;29;20025;-87
2022/10/07 08:06:31;;;;;;;20.15;9.68;;;;;;;;;;4882006;29;20036;-87
2022/10/07 08:08:58;;;;;;;16.85;10.60;;;;;;;;;;4896283;29;20040;-87
2022/10/07 08:11:25;;;;;;;14.52;9.95;;;;;;;;;;4880358;29;20068;-86
2022/10/07 08:13:51;;;;;;;11.40;8.52;;;;;;;;;;4896811;29;20040;-87
2022/10/07 08:16:20;;;;;;;14.00;10.15;;;;;;;;;;4896175;29;20041;-87
2022/10/07 08:18:48;;;;;;;14.02;9.25;;;;;;;;;;4896184;29;20099;-88
2022/10/07 08:21:17;;;;;;;14.65;9.40;;;;;;;;;;4883936;29;20041;-86
2022/10/07 08:23:46;;;;;;;11.07;8.43;;;;;;;;;;4899468;29;20059;-87
2022/10/07 08:26:13;;;;;;;13.43;9.32;;;;;;;;;;4899210;29;20036;-87
2022/10/07 08:28:39;;;;;;;15.32;9.18;;;;;;;;;;4899107;29;20040;-87
2022/10/07 08:31:07;;;;;;;14.23;9.68;;;;;;;;;;4899650;29;20410;-87
2022/10/07 08:33:36;;;;;;;17.05;9.93;;;;;;;;;;4901675;29;20478;-87
2022/10/07 08:36:03;;;;;;;15.27;8.98;;;;;;;;;;4918567;29;20036;-87
2022/10/07 08:38:34;;;;;;;14.35;9.43;;;;;;;;;;4904804;29;20047;-87
2022/10/07 08:41:15;;;;;;;15.35;9.52;;;;;;;;;;4908498;29;20068;-87
2022/10/07 08:43:48;;;;;;;16.98;9.48;;;;;;;;;;4904654;29;20048;-87
2022/10/07 08:46:23;;;;;;;15.93;9.15;;;;;;;;;;4901029;29;20577;-87
2022/10/07 08:48:57;;;;;;;12.95;7.97;;;;;;;;;;4900434;29;20045;-87
2022/10/07 08:51:32;;;;;;;;;;;;;;;;;;4898397;29;20486;-86
2022/10/07 08:53:58;;;;;;;13.95;8.07;;;;;;;;;;4900525;29;19920;-85
2022/10/07 08:56:25;;;;;;;14.02;8.65;;;;;;;;;;4901023;29;20040;-86
2022/10/07 08:58:54;;;;;;;13.98;8.60;;;;;;;;;;4902327;29;20039;-86
2022/10/07 09:02:15;;;;;;;15.50;8.93;;;;;;;;;;4901025;29;20047;-87
2022/10/07 09:04:58;;;;;;;21.35;8.70;;;;;;;;;;4899572;29;20498;-87
2022/10/07 09:07:30;;;;;;;12.90;8.15;;;;;;;;;;4900686;29;20044;-87
2022/10/07 09:10:02;;;;;;;16.73;9.52;;;;;;;;;;4900661;29;20036;-86
2022/10/07 09:12:33;;;;;;;13.07;8.80;;;;;;;;;;4901204;29;20072;-87
2022/10/07 09:15:00;;;;;;;13.50;8.85;;;;;;;;;;4899285;29;20750;-87
2022/10/07 09:17:34;;;;;;;11.52;8.23;;;;;;;;;;4898468;29;20037;-87
2022/10/07 09:20:05;;;;;;;12.60;8.43;;;;;;;;;;4899422;29;20088;-87
2022/10/07 09:22:44;;;;;;;14.02;8.82;;;;;;;;;;4899151;29;20037;-87
2022/10/07 09:25:09;;;;;;;15.38;9.73;;;;;;;;;;4899070;29;20383;-87
2022/10/07 09:27:35;;;;;;;12.63;9.05;;;;;;;;;;4899188;29;20557;-87
2022/10/07 09:30:01;;;;;;;14.65;10.00;;;;;;;;;;4898946;29;20045;-87
2022/10/07 09:32:26;;;;;;;17.05;9.02;;;;;;;;;;4897487;29;20024;-87
2022/10/07 09:34:52;;;;;;;14.57;10.13;;;;;;;;;;4898771;29;20048;-87
2022/10/07 09:37:26;;;;;;;21.27;9.38;;;;;;;;;;4898898;29;20124;-87
2022/10/07 09:39:56;;;;;;;17.02;10.00;;;;;;;;;;4898923;29;20032;-87
2022/10/07 09:42:34;;;;;;;16.42;10.38;;;;;;;;;;4899355;29;20044;-87
2022/10/07 09:45:04;;;;;;;18.00;10.30;;;;;;;;;;4900836;29;20036;-88
2022/10/07 09:47:39;;;;;;;14.82;9.52;;;;;;;;;;4884674;29;20041;-87
2022/10/07 09:50:05;;;;;;;12.65;8.90;;;;;;;;;;4884942;29;20051;-87
2022/10/07 09:52:31;;;;;;;15.35;10.30;;;;;;;;;;4901821;29;20711;-87
2022/10/07 09:55:46;;;;;;;19.02;10.88;;;;;;;;;;4901929;29;20061;-87
2022/10/07 09:58:26;;;;;;;19.73;11.60;;;;;;;;;;4889579;29;20502;-87
2022/10/07 10:00:55;;;;;;;17.80;11.20;;;;;;;;;;4901034;29;20048;-87
2022/10/07 10:03:28;;;;;;;18.73;10.80;;;;;;;;;;4902311;29;20502;-87
2022/10/07 10:05:58;;;;;;;18.50;12.68;;;;;;;;;;4900002;29;20035;-87
2022/10/07 10:08:38;;;;;;;16.05;10.75;;;;;;;;;;4904521;29;20044;-89
2022/10/07 10:11:19;;;;;;;17.15;10.75;;;;;;;;;;4907197;29;20087;-87
2022/10/07 10:13:48;;;;;;;17.58;10.82;;;;;;;;;;4913841;29;20048;-86
2022/10/07 10:16:39;;;;;;;18.67;11.60;;;;;;;;;;4917774;29;20040;-86
2022/10/07 10:19:21;;;;;;;22.23;12.13;;;;;;;;;;4919469;29;20028;-86
2022/10/07 10:21:52;;;;;;;26.33;12.60;;;;;;;;;;4919307;29;20064;-86
2022/10/07 10:26:24;;;;;;;18.10;12.13;;;;;;;;;;4919150;29;20036;-86
2022/10/07 10:27:17;;;;;;;15.68;11.20;;;;;;;;;;4919222;29;20040;-86
2022/10/07 10:29:55;;;;;;;17.85;11.75;;;;;;;;;;4919139;29;20412;-86
2022/10/07 10:32:26;;;;;;;16.58;11.80;;;;;;;;;;4919441;29;20044;-87
2022/10/07 10:35:12;;;;;;;19.38;11.90;;;;;;;;;;4900505;29;20028;-86
2022/10/07 10:37:40;;;;;;;20.48;13.30;;;;;;;;;;4918454;29;20091;-85
2022/10/07 10:40:24;;;;;;;19.85;13.07;;;;;;;;;;4918580;29;20063;-85
2022/10/07 10:43:10;;;;;;;22.10;13.85;;;;;;;;;;4917900;29;20420;-86
2022/10/07 10:46:14;;;;;;;16.67;12.25;;;;;;;;;;4918931;29;20040;-86
2022/10/07 10:48:52;;;;;;;;;;;;;;;;;;4920762;29;20040;-86
2022/10/07 10:51:48;;;;;;;19.30;12.98;;;;;;;;;;4918860;29;19927;-85
2022/10/07 10:54:32;;;;;;;20.17;12.75;;;;;;;;;;4917982;29;20044;-85
2022/10/07 10:57:36;;;;;;;18.98;13.48;;;;;;;;;;4919656;29;20036;-85
2022/10/07 11:00:15;;;;;;;20.58;12.93;;;;;;;;;;4880981;29;20083;-85
2022/10/07 11:03:24;;;;;;;17.30;12.27;;;;;;;;;;4919079;29;20040;-86
2022/10/07 11:05:53;;;;;;;19.30;12.98;;;;;;;;;;4918755;29;20063;-86
2022/10/07 11:08:21;;;;;;;19.02;13.35;;;;;;;;;;4919613;29;20028;-87
2022/10/07 11:11:05;;;;;;;21.30;13.93;;;;;;;;;;4919414;29;20051;-86
2022/10/07 11:13:51;;;;;;;23.63;14.65;;;;;;;;;;4918624;29;20063;-86
2022/10/07 11:16:24;;;;;;;26.27;14.90;;;;;;;;;;4901474;29;20050;-86
2022/10/07 11:19:00;;;;;;;22.27;14.37;;;;;;;;;;4933599;29;20383;-85
2022/10/07 11:21:33;;;;;;;8.75;6.03;;;;;;;;;;4918524;29;20465;-84
2022/10/07 11:24:10;;;;;;;20.98;13.80;;;;;;;;;;4921191;29;20032;-86
2022/10/07 11:26:42;;;;;;;23.52;14.50;;;;;;;;;;4921161;29;20044;-86
2022/10/07 11:29:41;;;;;;;20.50;14.45;;;;;;;;;;4921219;29;20032;-86
2022/10/07 11:32:29;;;;;;;22.60;13.90;;;;;;;;;;4911099;29;20059;-86
2022/10/07 11:35:09;;;;;;;21.13;14.30;;;;;;;;;;4921460;29;20092;-87
2022/10/07 11:37:41;;;;;;;32.05;16.58;;;;;;;;;;4920899;29;20050;-86
2022/10/07 11:40:07;;;;;;;26.85;15.05;;;;;;;;;;4921410;29;20075;-86
2022/10/07 11:42:41;;;;;;;24.38;14.02;;;;;;;;;;4921607;29;20028;-86
2022/10/07 11:45:11;;;;;;;28.00;15.95;;;;;;;;;;4920271;29;20047;-87
2022/10/07 11:47:49;;;;;;;21.50;14.45;;;;;;;;;;4921235;29;20107;-86
2022/10/07 11:50:20;;;;;;;23.08;14.38;;;;;;;;;;4922437;29;20051;-86
2022/10/07 11:52:49;;;;;;;20.42;14.25;;;;;;;;;;4921240;29;20074;-86
2022/10/07 11:55:26;;;;;;;22.02;13.15;;;;;;;;;;4924822;29;20036;-87
2022/10/07 11:57:57;;;;;;;19.20;13.50;;;;;;;;;;4924987;29;20091;-86
2022/10/07 12:00:26;;;;;;;25.25;14.35;;;;;;;;;;4925925;29;20046;-87
2022/10/07 12:02:56;;;;;;;22.73;13.90;;;;;;;;;;4926084;29;20032;-87
2022/10/07 12:05:33;;;;;;;18.48;12.75;;;;;;;;;;4925870;29;20036;-86
2022/10/07 12:08:01;;;;;;;21.10;13.45;;;;;;;;;;4924550;29;20035;-87
2022/10/07 12:10:29;;;;;;;18.02;13.15;;;;;;;;;;4924644;29;20028;-86
2022/10/07 12:13:11;;;;;;;18.10;13.30;;;;;;;;;;4924732;29;20722;-86
2022/10/07 12:15:41;;;;;;;19.17;13.10;;;;;;;;;;4924186;29;20035;-86
2022/10/07 12:18:09;;;;;;;12.02;8.43;;;;;;;;;;4924229;29;20036;-89
2022/10/07 12:20:51;;;;;;;13.25;9.35;;;;;;;;;;4917771;29;20029;-87
2022/10/07 12:23:20;;;;;;;49.78;12.35;;;;;;;;;;4918542;29;20039;-88
2022/10/07 12:25:54;;;;;;;;;;;;;;;;;;4906445;29;20036;-87
2022/10/07 12:28:35;;;;;;;22.15;13.73;;;;;;;;;;4924316;29;19923;-86
2022/10/07 12:31:26;;;;;;;21.15;13.70;;;;;;;;;;4921825;29;20104;-87
2022/10/07 12:34:03;;;;;;;24.98;13.50;;;;;;;;;;4924460;29;20036;-87
2022/10/07 12:36:30;;;;;;;19.85;13.25;;;;;;;;;;4924230;29;20040;-87
2022/10/07 12:39:24;;;;;;;20.35;13.75;;;;;;;;;;4907588;29;20073;-87
2022/10/07 12:41:50;;;;;;;20.52;13.73;;;;;;;;;;4923901;29;20433;-87
2022/10/07 12:44:33;;;;;;;18.98;13.43;;;;;;;;;;4908757;29;20043;-87
2022/10/07 12:47:24;;;;;;;20.40;13.52;;;;;;;;;;4923527;29;20072;-89
2022/10/07 12:49:57;;;;;;;24.50;14.63;;;;;;;;;;4922274;29;20062;-86
2022/10/07 12:52:41;;;;;;;18.77;12.40;;;;;;;;;;4922352;29;20036;-87
2022/10/07 12:55:18;;;;;;;21.33;13.65;;;;;;;;;;4908603;29;20044;-87
2022/10/07 12:57:50;;;;;;;20.35;13.48;;;;;;;;;;4925524;29;20040;-87
2022/10/07 13:00:19;;;;;;;21.33;14.70;;;;;;;;;;4925368;29;20043;-87
2022/10/07 13:03:15;;;;;;;21.75;14.57;;;;;;;;;;4924797;29;20052;-87
2022/10/07 13:05:47;;;;;;;20.92;13.60;;;;;;;;;;4924304;29;20040;-87
2022/10/07 13:08:31;;;;;;;18.65;13.63;;;;;;;;;;4924156;29;20040;-87
2022/10/07 13:11:35;;;;;;;18.52;13.35;;;;;;;;;;4927014;29;20048;-87
2022/10/07 13:14:12;;;;;;;21.20;14.07;;;;;;;;;;4856027;29;20050;-88
2022/10/07 13:16:47;;;;;;;23.08;14.60;;;;;;;;;;4925491;29;20044;-87
2022/10/07 13:19:25;;;;;;;21.52;13.95;;;;;;;;;;4925855;29;20040;-87
2022/10/07 13:21:53;;;;;;;19.98;13.20;;;;;;;;;;4923640;29;20046;-86
2022/10/07 13:24:25;;;;;;;22.17;13.35;;;;;;;;;;4925230;29;20080;-87
2022/10/07 13:26:51;;;;;;;19.65;13.63;;;;;;;;;;4922328;29;20549;-87
2022/10/07 13:29:42;;;;;;;22.02;14.10;;;;;;;;;;4924727;29;20056;-88
2022/10/07 13:32:08;;;;;;;18.67;13.15;;;;;;;;;;4931924;29;20108;-87
2022/10/07 13:34:34;;;;;;;20.27;14.10;;;;;;;;;;4924566;29;20683;-87
2022/10/07 13:37:00;;;;;;;19.95;14.35;;;;;;;;;;4924691;29;20032;-86
2022/10/07 13:39:25;;;;;;;22.73;14.93;;;;;;;;;;4926268;29;20489;-87
2022/10/07 13:41:56;;;;;;;23.42;14.93;;;;;;;;;;4924720;29;20060;-87
2022/10/07 13:44:26;;;;;;;21.05;15.15;;;;;;;;;;4923292;29;20485;-87
2022/10/07 13:47:03;;;;;;;21.88;15.73;;;;;;;;;;4924946;29;20036;-87
2022/10/07 13:49:37;;;;;;;22.45;15.50;;;;;;;;;;4928069;29;20621;-87
2022/10/07 13:52:06;;;;;;;18.73;13.85;;;;;;;;;;4927197;29;20048;-87
2022/10/07 13:54:33;;;;;;;20.00;13.40;;;;;;;;;;4927164;29;20064;-87
2022/10/07 13:57:01;;;;;;;18.33;13.57;;;;;;;;;;4917171;29;20051;-88
2022/10/07 13:59:27;;;;;;;20.05;14.10;;;;;;;;;;4907473;29;20079;-89
2022/10/07 14:01:56;;;;;;;16.42;9.98;;;;;;;;;;4904947;29;20106;-86
2022/10/07 14:04:35;;;;;;;21.17;12.02;;;;;;;;;;4918923;29;20054;-89
2022/10/07 14:07:18;;;;;;;15.43;12.13;;;;;;;;;;4905933;29;20032;-85
2022/10/07 14:10:03;;;;;;;17.65;12.20;;;;;;;;;;4920931;29;20409;-88
2022/10/07 14:12:41;;;;;;;17.55;12.18;;;;;;;;;;4929134;29;20040;-87
2022/10/07 14:15:23;;;;;;;20.33;13.20;;;;;;;;;;4915024;29;20040;-87
2022/10/07 14:17:53;;;;;;;18.80;12.40;;;;;;;;;;4919807;29;20531;-87
2022/10/07 14:20:19;;;;;;;18.42;12.75;;;;;;;;;;4917195;29;20031;-87
2022/10/07 14:22:49;;;;;;;20.10;12.43;;;;;;;;;;4919931;29;20537;-87
2022/10/07 14:25:20;;;;;;;18.15;12.68;;;;;;;;;;4921775;29;20050;-87
2022/10/07 14:27:46;;;;;;;17.88;11.85;;;;;;;;;;4922067;29;20043;-87
2022/10/07 14:30:28;;;;;;;15.63;10.50;;;;;;;;;;4913051;29;20489;-88
2022/10/07 14:36:08;;;;;;;14.40;10.13;;;;;;;;;;4919517;29;20040;-87
2022/10/07 14:38:33;;;;;;;17.15;11.10;;;;;;;;;;4918957;29;20164;-89
2022/10/07 14:40:59;;;;;;;14.55;11.07;;;;;;;;;;4933121;29;20499;-88
2022/10/07 14:43:26;;;;;;;15.48;10.07;;;;;;;;;;4917106;29;20032;-87
2022/10/07 14:45:52;;;;;;;17.02;11.73;;;;;;;;;;4917257;29;20040;-88
2022/10/07 14:48:17;;;;;;;15.82;11.18;;;;;;;;;;4917908;29;20046;-88
2022/10/07 14:50:43;;;;;;;16.98;12.18;;;;;;;;;;4916428;29;20068;-88
2022/10/07 14:53:13;;;;;;;16.80;11.70;;;;;;;;;;4916407;29;20409;-88
2022/10/07 14:55:39;;;;;;;16.40;12.10;;;;;;;;;;4916092;29;20083;-88
2022/10/07 14:58:04;;;;;;;14.40;10.93;;;;;;;;;;4906574;29;20037;-87
2022/10/07 15:00:30;;;;;;;17.10;12.48;;;;;;;;;;4918057;29;20036;-87
2022/10/07 15:02:57;;;;;;;18.48;13.23;;;;;;;;;;4921993;29;20485;-87
2022/10/07 15:05:23;;;;;;;18.98;11.88;;;;;;;;;;4922243;29;20072;-87